Ana Sayfa
METAR-TAF:

METAR-TAF

Havaalanları :

Port Isabel-Cameron County Airport

Port Isabel, Teksas, Amerika Birleşik Devletleri

Enlem: 26-09-33N, Boylam: 097-20-15W, yükseklik: 5 m

Güncel hava durumu gözlemi

Rapor saat 04:53 UTC de 40 dakika önce yapıldı.
Rüzgar güney/güneydoğudan 8 kt
Sıcaklık 28°C
Nem 84%
Basınç 1016 hPa
Görüş mesafesi: 16.1 km
2400 ft yükseklikte az bulutlu

METAR: KPIL 160453Z AUTO 15008KT 10SM FEW024 28/25 A2999 RMK AO2 SLP155 T02780250

Saat: 00:33 (05:33 UTC)


TAF: eksik

4.000'den fazla havaalanı için hava durumu gözlemleri ve tahminleri (METAR ve TAF raporları).

Kullanılabilir istasyonlar harita üzerinde sarı ve kırmızı noktalarla gösterilir.

İstasyonun adını görmek için fareyi noktanın üzerinde gezdirin.

Sonrasında hava gözlem ve tahminlerini görmek için tıklayın.

Haritayı değiştirmek için: yaklaştırmak için siyah artı işaretli yeşil düğmeye ve uzaklaştırmak için de eksi işaretli düğmeye hızla tıklayın; bitişik haritalar için yeşil okları kullanın.


METAR-TAF: